sensor_id;sensor_type;location;lat;lon;timestamp;pressure;altitude;pressure_sealevel;temperature;humidity
74680;BME280;63211;48.548;2.704;2023-09-18T00:00:03;99942.91;;;22.04;64.78
74680;BME280;63211;48.548;2.704;2023-09-18T00:02:33;99949.22;;;22.05;64.40
74680;BME280;63211;48.548;2.704;2023-09-18T00:05:00;99943.97;;;21.98;64.78
74680;BME280;63211;48.548;2.704;2023-09-18T00:07:27;99941.56;;;22.02;64.88
74680;BME280;63211;48.548;2.704;2023-09-18T00:09:54;99940.72;;;22.01;64.55
74680;BME280;63211;48.548;2.704;2023-09-18T00:12:21;99938.75;;;21.97;65.14
74680;BME280;63211;48.548;2.704;2023-09-18T00:14:48;99953.88;;;22.04;64.57
74680;BME280;63211;48.548;2.704;2023-09-18T00:17:15;99940.16;;;22.04;64.46
74680;BME280;63211;48.548;2.704;2023-09-18T00:19:44;99945.13;;;22.02;64.70
74680;BME280;63211;48.548;2.704;2023-09-18T00:22:11;99939.66;;;22.02;64.78
74680;BME280;63211;48.548;2.704;2023-09-18T00:24:37;99935.25;;;22.01;64.95
74680;BME280;63211;48.548;2.704;2023-09-18T00:27:06;99932.25;;;22.03;64.99
74680;BME280;63211;48.548;2.704;2023-09-18T00:29:32;99909.66;;;21.85;64.51
74680;BME280;63211;48.548;2.704;2023-09-18T00:31:59;99938.00;;;22.01;64.60
74680;BME280;63211;48.548;2.704;2023-09-18T00:34:25;99935.25;;;22.01;64.62
74680;BME280;63211;48.548;2.704;2023-09-18T00:36:52;99927.25;;;22.00;64.39
74680;BME280;63211;48.548;2.704;2023-09-18T00:39:18;99927.03;;;22.01;64.95
74680;BME280;63211;48.548;2.704;2023-09-18T00:41:45;99938.00;;;22.01;64.69
74680;BME280;63211;48.548;2.704;2023-09-18T00:44:15;99930.88;;;22.00;64.84
74680;BME280;63211;48.548;2.704;2023-09-18T00:46:42;99926.19;;;22.01;64.51
74680;BME280;63211;48.548;2.704;2023-09-18T00:49:09;99926.19;;;22.01;64.88
74680;BME280;63211;48.548;2.704;2023-09-18T00:51:37;99911.63;;;21.95;64.70
74680;BME280;63211;48.548;2.704;2023-09-18T00:54:04;99907.00;;;22.01;64.67
74680;BME280;63211;48.548;2.704;2023-09-18T00:56:32;99911.91;;;21.99;64.61
74680;BME280;63211;48.548;2.704;2023-09-18T00:58:59;99899.81;;;21.94;64.54
74680;BME280;63211;48.548;2.704;2023-09-18T01:01:28;99919.56;;;21.97;64.75
74680;BME280;63211;48.548;2.704;2023-09-18T01:03:55;99921.22;;;21.98;64.67
74680;BME280;63211;48.548;2.704;2023-09-18T01:06:24;99918.81;;;22.01;64.47
74680;BME280;63211;48.548;2.704;2023-09-18T01:08:53;99925.38;;;22.00;64.78
74680;BME280;63211;48.548;2.704;2023-09-18T01:11:26;99942.88;;;21.99;64.88
74680;BME280;63211;48.548;2.704;2023-09-18T01:14:01;99939.09;;;22.00;64.42
74680;BME280;63211;48.548;2.704;2023-09-18T01:16:34;99951.09;;;21.99;64.91
74680;BME280;63211;48.548;2.704;2023-09-18T01:19:03;99930.25;;;21.93;65.04
74680;BME280;63211;48.548;2.704;2023-09-18T01:21:29;99943.16;;;21.98;64.68
74680;BME280;63211;48.548;2.704;2023-09-18T01:23:57;99947.81;;;21.97;64.57
74680;BME280;63211;48.548;2.704;2023-09-18T01:26:24;99940.69;;;21.96;64.53
74680;BME280;63211;48.548;2.704;2023-09-18T01:28:50;99945.06;;;21.97;64.72
74680;BME280;63211;48.548;2.704;2023-09-18T01:31:17;99937.34;;;21.89;64.60
74680;BME280;63211;48.548;2.704;2023-09-18T01:33:44;99946.41;;;21.94;64.96
74680;BME280;63211;48.548;2.704;2023-09-18T01:36:13;99936.34;;;22.00;64.48
74680;BME280;63211;48.548;2.704;2023-09-18T01:38:41;99922.06;;;22.03;64.64
74680;BME280;63211;48.548;2.704;2023-09-18T01:41:10;99935.81;;;22.08;64.83
74680;BME280;63211;48.548;2.704;2023-09-18T01:43:36;99941.28;;;22.08;64.78
74680;BME280;63211;48.548;2.704;2023-09-18T01:46:03;99930.00;;;22.00;64.27
74680;BME280;63211;48.548;2.704;2023-09-18T01:48:31;99939.91;;;22.06;65.22
74680;BME280;63211;48.548;2.704;2023-09-18T01:50:57;99931.69;;;22.06;65.22
74680;BME280;63211;48.548;2.704;2023-09-18T01:53:24;99936.34;;;22.05;64.77
74680;BME280;63211;48.548;2.704;2023-09-18T01:55:51;99926.47;;;22.04;64.77
74680;BME280;63211;48.548;2.704;2023-09-18T01:58:19;99919.31;;;21.98;65.45
74680;BME280;63211;48.548;2.704;2023-09-18T02:00:46;99932.25;;;22.03;64.95
74680;BME280;63211;48.548;2.704;2023-09-18T02:03:12;99926.75;;;22.03;65.20
74680;BME280;63211;48.548;2.704;2023-09-18T02:05:40;99925.94;;;22.02;65.29
74680;BME280;63211;48.548;2.704;2023-09-18T02:08:06;99937.72;;;22.03;64.95
74680;BME280;63211;48.548;2.704;2023-09-18T02:10:33;99939.66;;;22.02;64.83
74680;BME280;63211;48.548;2.704;2023-09-18T02:12:59;99951.69;;;22.01;64.80
74680;BME280;63211;48.548;2.704;2023-09-18T02:15:27;99939.34;;;22.04;65.24
74680;BME280;63211;48.548;2.704;2023-09-18T02:17:57;99936.91;;;22.02;65.05
74680;BME280;63211;48.548;2.704;2023-09-18T02:20:24;99947.03;;;22.02;65.12
74680;BME280;63211;48.548;2.704;2023-09-18T02:22:50;99933.53;;;21.95;64.83
74680;BME280;63211;48.548;2.704;2023-09-18T02:25:17;99945.13;;;22.02;65.22
74680;BME280;63211;48.548;2.704;2023-09-18T02:27:44;99941.56;;;22.02;64.63
74680;BME280;63211;48.548;2.704;2023-09-18T02:30:11;99950.59;;;22.02;64.67
74680;BME280;63211;48.548;2.704;2023-09-18T02:32:39;99949.78;;;22.02;65.00
74680;BME280;63211;48.548;2.704;2023-09-18T02:35:06;99955.53;;;22.00;65.03
74680;BME280;63211;48.548;2.704;2023-09-18T02:37:33;99960.16;;;22.00;65.11
74680;BME280;63211;48.548;2.704;2023-09-18T02:40:00;99960.16;;;22.00;65.06
74680;BME280;63211;48.548;2.704;2023-09-18T02:42:27;99963.75;;;22.00;65.05
74680;BME280;63211;48.548;2.704;2023-09-18T02:44:54;99982.94;;;22.00;64.99
74680;BME280;63211;48.548;2.704;2023-09-18T02:47:21;99985.69;;;22.00;64.67
74680;BME280;63211;48.548;2.704;2023-09-18T02:49:49;99981.84;;;22.01;64.80
74680;BME280;63211;48.548;2.704;2023-09-18T02:52:15;99984.81;;;22.00;65.05
74680;BME280;63211;48.548;2.704;2023-09-18T02:54:42;99972.47;;;21.97;65.27
74680;BME280;63211;48.548;2.704;2023-09-18T02:57:08;99978.22;;;21.95;64.83
74680;BME280;63211;48.548;2.704;2023-09-18T02:59:35;99969.47;;;21.99;64.80
74680;BME280;63211;48.548;2.704;2023-09-18T03:02:02;99963.16;;;21.98;65.07
74680;BME280;63211;48.548;2.704;2023-09-18T03:04:29;99953.81;;;21.94;64.89
74680;BME280;63211;48.548;2.704;2023-09-18T03:06:57;99964.81;;;21.99;64.84
74680;BME280;63211;48.548;2.704;2023-09-18T03:09:23;99966.72;;;21.99;64.55
74680;BME280;63211;48.548;2.704;2023-09-18T03:11:50;99963.16;;;21.98;64.84
74680;BME280;63211;48.548;2.704;2023-09-18T03:14:17;99960.69;;;21.97;64.92
74680;BME280;63211;48.548;2.704;2023-09-18T03:16:43;99962.34;;;21.98;64.83
74680;BME280;63211;48.548;2.704;2023-09-18T03:19:10;99953.28;;;21.97;64.57
74680;BME280;63211;48.548;2.704;2023-09-18T03:21:37;99952.47;;;21.97;64.74
74680;BME280;63211;48.548;2.704;2023-09-18T03:24:06;99930.75;;;21.85;64.92
74680;BME280;63211;48.548;2.704;2023-09-18T03:26:33;99945.59;;;21.94;64.66
74680;BME280;63211;48.548;2.704;2023-09-18T03:29:00;99931.31;;;21.87;64.75
74680;BME280;63211;48.548;2.704;2023-09-18T03:31:26;99950.00;;;21.95;64.98
74680;BME280;63211;48.548;2.704;2023-09-18T03:33:54;99951.06;;;21.94;64.36
74680;BME280;63211;48.548;2.704;2023-09-18T03:36:21;99940.91;;;21.89;64.41
74680;BME280;63211;48.548;2.704;2023-09-18T03:38:48;99942.84;;;21.94;64.62
74680;BME280;63211;48.548;2.704;2023-09-18T03:41:16;99939.28;;;21.93;64.77
74680;BME280;63211;48.548;2.704;2023-09-18T03:43:43;99941.50;;;21.97;64.74
74680;BME280;63211;48.548;2.704;2023-09-18T03:46:09;99932.66;;;21.84;64.71
74680;BME280;63211;48.548;2.704;2023-09-18T03:48:36;99943.69;;;21.94;64.59
74680;BME280;63211;48.548;2.704;2023-09-18T03:51:03;99945.59;;;21.94;64.51
74680;BME280;63211;48.548;2.704;2023-09-18T03:53:30;99946.69;;;21.93;64.53
74680;BME280;63211;48.548;2.704;2023-09-18T03:55:57;99937.91;;;21.91;64.83
74680;BME280;63211;48.548;2.704;2023-09-18T03:58:25;99937.06;;;21.90;64.54
74680;BME280;63211;48.548;2.704;2023-09-18T04:00:52;99945.59;;;21.94;64.83
74680;BME280;63211;48.548;2.704;2023-09-18T04:03:18;99940.13;;;21.94;64.52
74680;BME280;63211;48.548;2.704;2023-09-18T04:05:45;99924.75;;;21.93;64.77
74680;BME280;63211;48.548;2.704;2023-09-18T04:08:11;99929.41;;;21.92;64.34
74680;BME280;63211;48.548;2.704;2023-09-18T04:10:38;99923.09;;;21.92;64.41
74680;BME280;63211;48.548;2.704;2023-09-18T04:13:05;99928.59;;;21.92;64.73
74680;BME280;63211;48.548;2.704;2023-09-18T04:15:33;99928.31;;;21.93;64.40
74680;BME280;63211;48.548;2.704;2023-09-18T04:18:03;99928.31;;;21.93;64.77
74680;BME280;63211;48.548;2.704;2023-09-18T04:20:30;99924.75;;;21.93;64.87
74680;BME280;63211;48.548;2.704;2023-09-18T04:23:19;99929.41;;;21.92;64.37
74680;BME280;63211;48.548;2.704;2023-09-18T04:25:47;99931.34;;;21.92;64.63
74680;BME280;63211;48.548;2.704;2023-09-18T04:28:14;99933.25;;;21.91;64.79
74680;BME280;63211;48.548;2.704;2023-09-18T04:30:42;99933.25;;;21.91;64.48
74680;BME280;63211;48.548;2.704;2023-09-18T04:33:08;99939.81;;;21.90;64.38
74680;BME280;63211;48.548;2.704;2023-09-18T04:35:37;99935.13;;;21.86;64.76
74680;BME280;63211;48.548;2.704;2023-09-18T04:38:06;99944.47;;;21.90;64.38
74680;BME280;63211;48.548;2.704;2023-09-18T04:40:33;99942.81;;;21.89;64.63
74680;BME280;63211;48.548;2.704;2023-09-18T04:43:00;99943.09;;;21.87;64.53
74680;BME280;63211;48.548;2.704;2023-09-18T04:45:27;99941.19;;;21.88;64.62
74680;BME280;63211;48.548;2.704;2023-09-18T04:47:55;99942.25;;;21.87;64.40
74680;BME280;63211;48.548;2.704;2023-09-18T04:50:22;99928.00;;;21.80;64.46
74680;BME280;63211;48.548;2.704;2023-09-18T04:52:48;99931.31;;;21.82;64.66
74680;BME280;63211;48.548;2.704;2023-09-18T04:55:17;99945.00;;;21.87;64.51
74680;BME280;63211;48.548;2.704;2023-09-18T04:57:44;99932.38;;;21.86;64.53
74680;BME280;63211;48.548;2.704;2023-09-18T05:00:11;99932.41;;;21.91;64.58
74680;BME280;63211;48.548;2.704;2023-09-18T05:02:39;99935.44;;;21.89;64.46
74680;BME280;63211;48.548;2.704;2023-09-18T05:05:08;99941.19;;;21.88;64.85
74680;BME280;63211;48.548;2.704;2023-09-18T05:07:35;99936.22;;;21.85;64.75
74680;BME280;63211;48.548;2.704;2023-09-18T05:10:02;99934.31;;;21.85;65.15
74680;BME280;63211;48.548;2.704;2023-09-18T05:12:30;99935.13;;;21.86;64.58
74680;BME280;63211;48.548;2.704;2023-09-18T05:14:57;99929.66;;;21.86;65.01
74680;BME280;63211;48.548;2.704;2023-09-18T05:17:39;99932.91;;;21.83;64.62
74680;BME280;63211;48.548;2.704;2023-09-18T05:20:09;99931.31;;;21.82;64.98
74680;BME280;63211;48.548;2.704;2023-09-18T05:22:38;99933.22;;;21.81;65.17
74680;BME280;63211;48.548;2.704;2023-09-18T05:25:05;99932.41;;;21.81;64.63
74680;BME280;63211;48.548;2.704;2023-09-18T05:27:32;99935.97;;;21.81;65.10
74680;BME280;63211;48.548;2.704;2023-09-18T05:29:59;99949.66;;;21.81;65.22
74680;BME280;63211;48.548;2.704;2023-09-18T05:32:25;99950.75;;;21.80;65.01
74680;BME280;63211;48.548;2.704;2023-09-18T05:34:52;99958.69;;;21.82;64.75
74680;BME280;63211;48.548;2.704;2023-09-18T05:37:20;99958.69;;;21.82;64.90
74680;BME280;63211;48.548;2.704;2023-09-18T05:39:46;99957.06;;;21.81;64.62
74680;BME280;63211;48.548;2.704;2023-09-18T05:42:14;99955.97;;;21.82;64.87
74680;BME280;63211;48.548;2.704;2023-09-18T05:44:41;99949.66;;;21.81;64.75
74680;BME280;63211;48.548;2.704;2023-09-18T05:47:08;99948.84;;;21.81;65.07
74680;BME280;63211;48.548;2.704;2023-09-18T05:49:34;99948.00;;;21.85;64.81
74680;BME280;63211;48.548;2.704;2023-09-18T05:52:01;99943.88;;;21.83;65.21
74680;BME280;63211;48.548;2.704;2023-09-18T05:54:29;99949.66;;;21.86;64.76
74680;BME280;63211;48.548;2.704;2023-09-18T05:56:56;99951.56;;;21.86;64.85
74680;BME280;63211;48.548;2.704;2023-09-18T05:59:22;99943.34;;;21.81;64.60
74680;BME280;63211;48.548;2.704;2023-09-18T06:01:49;99945.00;;;21.87;64.59
74680;BME280;63211;48.548;2.704;2023-09-18T06:04:16;99946.34;;;21.84;65.63
74680;BME280;63211;48.548;2.704;2023-09-18T06:06:43;99946.97;;;21.97;65.06
74680;BME280;63211;48.548;2.704;2023-09-18T06:09:09;99957.72;;;22.03;64.82
74680;BME280;63211;48.548;2.704;2023-09-18T06:11:37;99955.53;;;22.05;65.59
74680;BME280;63211;48.548;2.704;2023-09-18T06:14:04;99954.16;;;22.03;65.21
74680;BME280;63211;48.548;2.704;2023-09-18T06:16:30;99955.75;;;21.99;65.41
74680;BME280;63211;48.548;2.704;2023-09-18T06:18:57;99969.47;;;21.99;65.40
74680;BME280;63211;48.548;2.704;2023-09-18T06:21:25;99969.72;;;21.97;65.26
74680;BME280;63211;48.548;2.704;2023-09-18T06:23:52;99966.16;;;21.97;65.34
74680;BME280;63211;48.548;2.704;2023-09-18T06:26:18;99957.09;;;21.91;65.13
74680;BME280;63211;48.548;2.704;2023-09-18T06:28:46;99975.75;;;21.94;65.43
74680;BME280;63211;48.548;2.704;2023-09-18T06:31:13;99985.34;;;21.97;65.30
74680;BME280;63211;48.548;2.704;2023-09-18T06:33:39;99982.63;;;21.97;65.65
74680;BME280;63211;48.548;2.704;2023-09-18T06:36:06;99967.50;;;21.89;65.68
74680;BME280;63211;48.548;2.704;2023-09-18T06:38:33;99977.66;;;21.93;65.10
74680;BME280;63211;48.548;2.704;2023-09-18T06:40:59;99988.91;;;21.97;65.31
74680;BME280;63211;48.548;2.704;2023-09-18T06:43:26;99994.94;;;21.94;65.60
74680;BME280;63211;48.548;2.704;2023-09-18T06:45:54;99961.44;;;21.82;65.32
74680;BME280;63211;48.548;2.704;2023-09-18T06:48:23;99992.47;;;21.98;65.27
74680;BME280;63211;48.548;2.704;2023-09-18T06:50:49;99995.50;;;21.96;65.63
74680;BME280;63211;48.548;2.704;2023-09-18T06:53:16;99992.19;;;21.94;65.71
74680;BME280;63211;48.548;2.704;2023-09-18T06:55:42;99987.81;;;21.98;65.33
74680;BME280;63211;48.548;2.704;2023-09-18T06:58:09;99989.47;;;21.99;65.72
74680;BME280;63211;48.548;2.704;2023-09-18T07:00:36;100002.38;;;21.99;65.81
74680;BME280;63211;48.548;2.704;2023-09-18T07:03:04;100003.19;;;21.99;65.89
74680;BME280;63211;48.548;2.704;2023-09-18T07:05:31;100005.09;;;21.99;65.95
74680;BME280;63211;48.548;2.704;2023-09-18T07:07:57;100007.03;;;21.98;65.84
74680;BME280;63211;48.548;2.704;2023-09-18T07:10:24;100000.16;;;21.95;65.84
74680;BME280;63211;48.548;2.704;2023-09-18T07:12:51;100001.25;;;21.94;66.49
74680;BME280;63211;48.548;2.704;2023-09-18T07:15:17;100003.97;;;21.94;66.22
74680;BME280;63211;48.548;2.704;2023-09-18T07:17:44;100008.63;;;21.94;66.27
74680;BME280;63211;48.548;2.704;2023-09-18T07:20:12;100005.91;;;21.94;66.21
74680;BME280;63211;48.548;2.704;2023-09-18T07:22:40;100020.13;;;21.91;66.77
74680;BME280;63211;48.548;2.704;2023-09-18T07:25:07;100013.28;;;21.93;66.56
74680;BME280;63211;48.548;2.704;2023-09-18T07:27:33;100013.25;;;21.88;66.44
74680;BME280;63211;48.548;2.704;2023-09-18T07:30:01;100019.03;;;21.92;66.66
74680;BME280;63211;48.548;2.704;2023-09-18T07:32:29;100012.72;;;21.91;66.49
74680;BME280;63211;48.548;2.704;2023-09-18T07:34:56;100014.91;;;21.89;66.86
74680;BME280;63211;48.548;2.704;2023-09-18T07:37:24;100007.50;;;21.90;67.03
74680;BME280;63211;48.548;2.704;2023-09-18T07:39:51;100005.59;;;21.90;66.84
74680;BME280;63211;48.548;2.704;2023-09-18T07:42:17;100008.34;;;21.90;66.54
74680;BME280;63211;48.548;2.704;2023-09-18T07:44:44;100011.34;;;21.89;66.78
74680;BME280;63211;48.548;2.704;2023-09-18T07:47:10;100011.03;;;21.85;66.53
74680;BME280;63211;48.548;2.704;2023-09-18T07:49:37;100016.81;;;21.89;66.65
74680;BME280;63211;48.548;2.704;2023-09-18T07:52:04;100029.44;;;21.90;67.09
74680;BME280;63211;48.548;2.704;2023-09-18T07:54:32;100022.31;;;21.89;67.28
74680;BME280;63211;48.548;2.704;2023-09-18T07:56:58;100026.97;;;21.88;67.20
74680;BME280;63211;48.548;2.704;2023-09-18T07:59:26;100026.97;;;21.88;67.20
74680;BME280;63211;48.548;2.704;2023-09-18T08:01:53;100033.25;;;21.89;67.07
74680;BME280;63211;48.548;2.704;2023-09-18T08:04:20;100033.50;;;21.82;66.82
74680;BME280;63211;48.548;2.704;2023-09-18T08:06:47;100038.75;;;21.89;67.17
74680;BME280;63211;48.548;2.704;2023-09-18T08:09:13;100011.53;;;21.72;67.08
74680;BME280;63211;48.548;2.704;2023-09-18T08:11:42;100036.25;;;21.87;66.90
74680;BME280;63211;48.548;2.704;2023-09-18T08:14:09;100037.91;;;21.88;67.25
74680;BME280;63211;48.548;2.704;2023-09-18T08:16:37;100025.31;;;21.87;67.05
74680;BME280;63211;48.548;2.704;2023-09-18T08:19:04;100039.56;;;21.89;67.05
74680;BME280;63211;48.548;2.704;2023-09-18T08:21:32;100030.53;;;21.89;67.11
74680;BME280;63211;48.548;2.704;2023-09-18T08:23:58;100037.66;;;21.90;66.75
74680;BME280;63211;48.548;2.704;2023-09-18T08:26:25;100052.19;;;21.90;67.19
74680;BME280;63211;48.548;2.704;2023-09-18T08:28:54;100043.97;;;21.90;66.72
74680;BME280;63211;48.548;2.704;2023-09-18T08:31:21;100050.53;;;21.89;67.07
74680;BME280;63211;48.548;2.704;2023-09-18T08:33:49;100046.13;;;21.88;66.71
74680;BME280;63211;48.548;2.704;2023-09-18T08:36:16;100042.56;;;21.88;67.49
74680;BME280;63211;48.548;2.704;2023-09-18T08:38:42;100040.09;;;21.81;67.50
74680;BME280;63211;48.548;2.704;2023-09-18T08:41:12;100052.44;;;21.89;67.04
74680;BME280;63211;48.548;2.704;2023-09-18T08:43:40;100057.94;;;21.89;67.30
74680;BME280;63211;48.548;2.704;2023-09-18T08:46:11;100060.66;;;21.89;66.85
74680;BME280;63211;48.548;2.704;2023-09-18T08:48:37;100052.44;;;21.89;67.39
74680;BME280;63211;48.548;2.704;2023-09-18T08:51:06;100056.00;;;21.89;67.09
74680;BME280;63211;48.548;2.704;2023-09-18T08:53:35;100060.66;;;21.89;67.28
74680;BME280;63211;48.548;2.704;2023-09-18T08:56:03;100057.94;;;21.89;67.10
74680;BME280;63211;48.548;2.704;2023-09-18T08:58:32;100055.19;;;21.89;67.11
74680;BME280;63211;48.548;2.704;2023-09-18T09:01:01;100053.53;;;21.88;67.07
74680;BME280;63211;48.548;2.704;2023-09-18T09:03:30;100046.13;;;21.88;67.12
74680;BME280;63211;48.548;2.704;2023-09-18T09:05:57;100061.75;;;21.88;66.72
74680;BME280;63211;48.548;2.704;2023-09-18T09:08:27;100047.19;;;21.82;67.16
74680;BME280;63211;48.548;2.704;2023-09-18T09:10:53;100053.53;;;21.88;67.21
74680;BME280;63211;48.548;2.704;2023-09-18T09:13:23;100054.38;;;21.88;66.83
74680;BME280;63211;48.548;2.704;2023-09-18T09:15:52;100048.88;;;21.88;67.17
74680;BME280;63211;48.548;2.704;2023-09-18T09:18:21;100055.19;;;21.89;66.76
74680;BME280;63211;48.548;2.704;2023-09-18T09:20:57;100050.22;;;21.86;66.92
74680;BME280;63211;48.548;2.704;2023-09-18T09:23:25;100055.19;;;21.89;66.90
74680;BME280;63211;48.548;2.704;2023-09-18T09:25:52;100033.47;;;21.77;66.77
74680;BME280;63211;48.548;2.704;2023-09-18T09:28:29;100051.38;;;21.90;66.80
74680;BME280;63211;48.548;2.704;2023-09-18T09:31:00;100054.94;;;21.90;66.85
74680;BME280;63211;48.548;2.704;2023-09-18T09:33:27;100057.66;;;21.90;66.92
74680;BME280;63211;48.548;2.704;2023-09-18T09:35:56;100053.28;;;21.89;66.83
74680;BME280;63211;48.548;2.704;2023-09-18T09:38:28;100048.63;;;21.90;67.21
74680;BME280;63211;48.548;2.704;2023-09-18T09:40:57;100054.38;;;21.88;66.94
74680;BME280;63211;48.548;2.704;2023-09-18T09:43:26;100028.25;;;21.76;66.73
74680;BME280;63211;48.548;2.704;2023-09-18T09:45:56;100047.28;;;21.92;66.62
74680;BME280;63211;48.548;2.704;2023-09-18T09:48:24;100050.00;;;21.92;66.60
74680;BME280;63211;48.548;2.704;2023-09-18T09:50:51;100050.84;;;21.93;67.11
74680;BME280;63211;48.548;2.704;2023-09-18T09:53:42;100054.97;;;21.95;66.52
74680;BME280;63211;48.548;2.704;2023-09-18T09:56:08;100041.00;;;21.97;66.38
74680;BME280;63211;48.548;2.704;2023-09-18T09:58:35;100048.66;;;21.95;66.53
74680;BME280;63211;48.548;2.704;2023-09-18T10:01:03;100037.44;;;21.97;66.87
74680;BME280;63211;48.548;2.704;2023-09-18T10:03:35;100041.56;;;21.99;66.30
74680;BME280;63211;48.548;2.704;2023-09-18T10:06:04;100037.69;;;21.95;66.61
74680;BME280;63211;48.548;2.704;2023-09-18T10:08:33;100036.91;;;22.00;66.73
74680;BME280;63211;48.548;2.704;2023-09-18T10:11:05;100044.06;;;22.01;66.25
74680;BME280;63211;48.548;2.704;2023-09-18T10:13:40;100039.41;;;22.06;66.21
74680;BME280;63211;48.548;2.704;2023-09-18T10:16:09;100040.50;;;22.05;66.53
74680;BME280;63211;48.548;2.704;2023-09-18T10:18:40;100034.50;;;22.08;66.52
74680;BME280;63211;48.548;2.704;2023-09-18T10:21:15;100037.84;;;22.15;65.74
74680;BME280;63211;48.548;2.704;2023-09-18T10:23:56;100040.00;;;22.13;66.01
74680;BME280;63211;48.548;2.704;2023-09-18T10:26:24;100038.88;;;22.09;66.41
74680;BME280;63211;48.548;2.704;2023-09-18T10:28:55;100041.91;;;22.08;66.57
74680;BME280;63211;48.548;2.704;2023-09-18T10:31:24;100047.63;;;22.06;66.84
74680;BME280;63211;48.548;2.704;2023-09-18T10:33:52;100038.59;;;22.06;66.21
74680;BME280;63211;48.548;2.704;2023-09-18T10:36:20;100033.66;;;22.08;66.06
74680;BME280;63211;48.548;2.704;2023-09-18T10:38:49;100034.50;;;22.08;66.33
74680;BME280;63211;48.548;2.704;2023-09-18T10:41:19;100044.63;;;22.08;66.21
74680;BME280;63211;48.548;2.704;2023-09-18T10:43:46;100045.47;;;22.08;66.47
74680;BME280;63211;48.548;2.704;2023-09-18T10:46:15;100034.75;;;22.02;66.24
74680;BME280;63211;48.548;2.704;2023-09-18T10:48:42;100045.72;;;22.07;66.56
74680;BME280;63211;48.548;2.704;2023-09-18T10:51:10;100049.81;;;22.04;66.38
74680;BME280;63211;48.548;2.704;2023-09-18T10:53:39;100045.72;;;22.07;66.55
74680;BME280;63211;48.548;2.704;2023-09-18T10:56:07;100057.25;;;22.09;66.54
74680;BME280;63211;48.548;2.704;2023-09-18T10:58:33;100054.25;;;22.10;66.50
74680;BME280;63211;48.548;2.704;2023-09-18T11:01:01;100054.50;;;22.09;66.31
74680;BME280;63211;48.548;2.704;2023-09-18T11:03:28;100058.09;;;22.09;66.30
74680;BME280;63211;48.548;2.704;2023-09-18T11:06:05;100057.00;;;22.10;65.87
74680;BME280;63211;48.548;2.704;2023-09-18T11:08:33;100062.19;;;22.07;66.04
74680;BME280;63211;48.548;2.704;2023-09-18T11:11:07;100064.66;;;22.08;66.40
74680;BME280;63211;48.548;2.704;2023-09-18T11:13:39;100068.78;;;22.11;66.17
74680;BME280;63211;48.548;2.704;2023-09-18T11:16:33;100054.22;;;22.05;66.44
74680;BME280;63211;48.548;2.704;2023-09-18T11:19:08;100060.56;;;22.11;66.19
74680;BME280;63211;48.548;2.704;2023-09-18T11:21:36;100067.13;;;22.10;66.22
74680;BME280;63211;48.548;2.704;2023-09-18T11:24:05;100077.84;;;22.11;66.57
74680;BME280;63211;48.548;2.704;2023-09-18T11:26:34;100073.19;;;22.12;66.11
74680;BME280;63211;48.548;2.704;2023-09-18T11:29:05;100084.16;;;22.12;66.20
74680;BME280;63211;48.548;2.704;2023-09-18T11:31:41;100078.09;;;22.10;66.18
74680;BME280;63211;48.548;2.704;2023-09-18T11:34:12;100075.09;;;22.11;65.96
74680;BME280;63211;48.548;2.704;2023-09-18T11:36:40;100059.16;;;22.08;66.46
74680;BME280;63211;48.548;2.704;2023-09-18T11:39:06;100071.25;;;22.12;66.41
74680;BME280;63211;48.548;2.704;2023-09-18T11:41:36;100066.34;;;22.14;66.09
74680;BME280;63211;48.548;2.704;2023-09-18T11:44:31;100067.44;;;22.13;66.13
74680;BME280;63211;48.548;2.704;2023-09-18T11:47:00;100058.38;;;22.13;66.23
74680;BME280;63211;48.548;2.704;2023-09-18T11:49:29;100063.88;;;22.13;66.13
74680;BME280;63211;48.548;2.704;2023-09-18T11:51:58;100061.13;;;22.13;66.33
74680;BME280;63211;48.548;2.704;2023-09-18T11:54:26;100066.34;;;22.14;66.02
74680;BME280;63211;48.548;2.704;2023-09-18T11:56:55;100058.94;;;22.15;66.29
74680;BME280;63211;48.548;2.704;2023-09-18T11:59:33;100054.28;;;22.15;66.17
74680;BME280;63211;48.548;2.704;2023-09-18T12:02:01;100055.38;;;22.14;65.93
74680;BME280;63211;48.548;2.704;2023-09-18T12:04:31;100048.50;;;22.12;66.07
74680;BME280;63211;48.548;2.704;2023-09-18T12:06:59;100044.66;;;22.13;66.28
74680;BME280;63211;48.548;2.704;2023-09-18T12:09:28;100034.22;;;22.10;66.20
74680;BME280;63211;48.548;2.704;2023-09-18T12:11:57;100042.50;;;22.15;65.87
74680;BME280;63211;48.548;2.704;2023-09-18T12:14:30;100040.84;;;22.14;65.95
74680;BME280;63211;48.548;2.704;2023-09-18T12:16:57;100043.31;;;22.15;66.17
74680;BME280;63211;48.548;2.704;2023-09-18T12:19:24;100041.41;;;22.16;66.44
74680;BME280;63211;48.548;2.704;2023-09-18T12:21:51;100035.09;;;22.15;66.43
74680;BME280;63211;48.548;2.704;2023-09-18T12:24:20;100038.66;;;22.16;65.71
74680;BME280;63211;48.548;2.704;2023-09-18T12:26:47;100036.19;;;22.14;65.60
74680;BME280;63211;48.548;2.704;2023-09-18T12:29:15;100035.91;;;22.16;66.05
74680;BME280;63211;48.548;2.704;2023-09-18T12:31:42;100035.09;;;22.15;65.98
74680;BME280;63211;48.548;2.704;2023-09-18T12:34:14;100026.88;;;22.15;65.88
74680;BME280;63211;48.548;2.704;2023-09-18T12:36:41;100031.25;;;22.16;65.96
74680;BME280;63211;48.548;2.704;2023-09-18T12:39:09;100029.59;;;22.15;65.80
74680;BME280;63211;48.548;2.704;2023-09-18T12:41:37;100026.88;;;22.15;65.91
74680;BME280;63211;48.548;2.704;2023-09-18T12:44:05;100024.13;;;22.15;66.14
74680;BME280;63211;48.548;2.704;2023-09-18T12:46:34;100023.03;;;22.16;66.00
74680;BME280;63211;48.548;2.704;2023-09-18T12:49:15;100021.38;;;22.15;65.80
74680;BME280;63211;48.548;2.704;2023-09-18T12:51:42;99993.91;;;22.00;65.96
74680;BME280;63211;48.548;2.704;2023-09-18T12:54:09;100023.56;;;22.13;65.75
74680;BME280;63211;48.548;2.704;2023-09-18T12:56:41;100013.97;;;22.16;65.78
74680;BME280;63211;48.548;2.704;2023-09-18T12:59:08;100015.63;;;22.17;66.05